sensor_id;sensor_type;location;lat;lon;timestamp;pressure;altitude;pressure_sealevel;temperature;humidity
44839;BME280;30576;42.098;24.876;2022-10-23T00:00:17;100142.19;;;10.61;64.21
44839;BME280;30576;42.098;24.876;2022-10-23T00:02:43;100130.91;;;10.43;64.69
44839;BME280;30576;42.098;24.876;2022-10-23T00:05:08;100131.66;;;10.59;64.64
44839;BME280;30576;42.098;24.876;2022-10-23T00:07:33;100136.09;;;10.54;64.92
44839;BME280;30576;42.098;24.876;2022-10-23T00:09:59;100125.63;;;10.45;65.65
44839;BME280;30576;42.098;24.876;2022-10-23T00:12:24;100127.22;;;10.61;65.24
44839;BME280;30576;42.098;24.876;2022-10-23T00:14:52;100118.44;;;10.64;65.05
44839;BME280;30576;42.098;24.876;2022-10-23T00:17:18;100118.56;;;10.48;66.32
44839;BME280;30576;42.098;24.876;2022-10-23T00:19:44;100116.88;;;10.38;66.70
44839;BME280;30576;42.098;24.876;2022-10-23T00:22:09;100112.50;;;10.34;67.50
44839;BME280;30576;42.098;24.876;2022-10-23T00:24:35;100103.47;;;10.61;66.66
44839;BME280;30576;42.098;24.876;2022-10-23T00:27:01;100101.69;;;10.69;66.43
44839;BME280;30576;42.098;24.876;2022-10-23T00:29:27;100098.91;;;10.83;65.85
44839;BME280;30576;42.098;24.876;2022-10-23T00:31:52;100091.91;;;10.79;65.68
44839;BME280;30576;42.098;24.876;2022-10-23T00:34:17;100087.41;;;10.89;64.97
44839;BME280;30576;42.098;24.876;2022-10-23T00:36:43;100085.84;;;10.71;64.66
44839;BME280;30576;42.098;24.876;2022-10-23T00:39:08;100091.09;;;10.71;64.39
44839;BME280;30576;42.098;24.876;2022-10-23T00:41:34;100092.75;;;10.80;64.66
44839;BME280;30576;42.098;24.876;2022-10-23T00:46:48;100088.50;;;10.66;64.44
44839;BME280;30576;42.098;24.876;2022-10-23T00:49:13;100090.22;;;10.69;64.84
44839;BME280;30576;42.098;24.876;2022-10-23T00:51:41;100080.53;;;10.72;64.50
44839;BME280;30576;42.098;24.876;2022-10-23T00:54:07;100087.63;;;10.66;65.24
44839;BME280;30576;42.098;24.876;2022-10-23T00:56:33;100098.13;;;10.69;65.18
44839;BME280;30576;42.098;24.876;2022-10-23T00:59:00;100099.06;;;10.68;65.07
44839;BME280;30576;42.098;24.876;2022-10-23T01:01:25;100093.78;;;10.68;64.95
44839;BME280;30576;42.098;24.876;2022-10-23T01:03:51;100098.16;;;10.67;64.96
44839;BME280;30576;42.098;24.876;2022-10-23T01:11:19;100098.31;;;10.53;64.52
44839;BME280;30576;42.098;24.876;2022-10-23T01:16:14;100091.28;;;10.52;65.10
44839;BME280;30576;42.098;24.876;2022-10-23T01:19:15;100104.44;;;10.55;65.42
44839;BME280;30576;42.098;24.876;2022-10-23T01:22:09;100089.47;;;10.57;65.28
44839;BME280;30576;42.098;24.876;2022-10-23T01:32:14;100090.47;;;10.46;66.19
44839;BME280;30576;42.098;24.876;2022-10-23T01:34:49;100088.75;;;10.37;66.73
44839;BME280;30576;42.098;24.876;2022-10-23T01:37:18;100096.63;;;10.42;66.97
44839;BME280;30576;42.098;24.876;2022-10-23T01:39:46;100100.06;;;10.51;66.41
44839;BME280;30576;42.098;24.876;2022-10-23T01:42:15;100078.06;;;10.55;66.55
44839;BME280;30576;42.098;24.876;2022-10-23T01:44:50;100072.75;;;10.59;66.18
44839;BME280;30576;42.098;24.876;2022-10-23T01:47:17;100071.00;;;10.56;66.34
44839;BME280;30576;42.098;24.876;2022-10-23T01:49:44;100064.75;;;10.66;66.07
44839;BME280;30576;42.098;24.876;2022-10-23T01:52:12;100061.94;;;10.86;65.24
44839;BME280;30576;42.098;24.876;2022-10-23T01:54:38;100063.91;;;10.61;65.89
44839;BME280;30576;42.098;24.876;2022-10-23T01:57:06;100063.03;;;10.64;66.19
44839;BME280;30576;42.098;24.876;2022-10-23T01:59:34;100059.66;;;10.48;66.24
44839;BME280;30576;42.098;24.876;2022-10-23T02:02:00;100075.72;;;10.12;67.64
44839;BME280;30576;42.098;24.876;2022-10-23T02:04:31;100066.88;;;10.21;67.57
44839;BME280;30576;42.098;24.876;2022-10-23T02:06:58;100066.81;;;10.32;67.26
44839;BME280;30576;42.098;24.876;2022-10-23T02:09:23;100059.66;;;10.46;67.24
44839;BME280;30576;42.098;24.876;2022-10-23T02:12:12;100072.88;;;10.45;67.00
44839;BME280;30576;42.098;24.876;2022-10-23T02:17:18;100085.13;;;10.52;66.22
44839;BME280;30576;42.098;24.876;2022-10-23T02:22:46;100082.72;;;10.19;66.99
44839;BME280;30576;42.098;24.876;2022-10-23T02:25:17;100094.25;;;9.98;68.21
44839;BME280;30576;42.098;24.876;2022-10-23T02:27:44;100089.72;;;10.22;67.17
44839;BME280;30576;42.098;24.876;2022-10-23T02:30:11;100103.78;;;10.24;66.85
44839;BME280;30576;42.098;24.876;2022-10-23T02:32:39;100105.50;;;10.27;67.44
44839;BME280;30576;42.098;24.876;2022-10-23T02:35:05;100099.28;;;10.42;66.15
44839;BME280;30576;42.098;24.876;2022-10-23T02:37:30;100099.38;;;10.21;67.08
44839;BME280;30576;42.098;24.876;2022-10-23T02:39:56;100090.59;;;10.24;66.80
44839;BME280;30576;42.098;24.876;2022-10-23T02:45:49;100112.81;;;9.81;68.48
44839;BME280;30576;42.098;24.876;2022-10-23T02:50:43;100126.75;;;10.02;68.18
44839;BME280;30576;42.098;24.876;2022-10-23T02:53:28;100132.78;;;10.24;67.50
44839;BME280;30576;42.098;24.876;2022-10-23T02:56:02;100133.75;;;10.04;68.06
44839;BME280;30576;42.098;24.876;2022-10-23T03:01:21;100120.41;;;10.32;67.36
44839;BME280;30576;42.098;24.876;2022-10-23T03:04:06;100121.41;;;10.10;67.61
44839;BME280;30576;42.098;24.876;2022-10-23T03:06:31;100124.19;;;9.88;69.12
44839;BME280;30576;42.098;24.876;2022-10-23T03:08:57;100110.22;;;9.69;70.54
44839;BME280;30576;42.098;24.876;2022-10-23T03:11:23;100116.22;;;9.96;70.29
44839;BME280;30576;42.098;24.876;2022-10-23T03:13:48;100117.09;;;10.02;70.31
44839;BME280;30576;42.098;24.876;2022-10-23T03:16:14;100118.66;;;10.31;68.57
44839;BME280;30576;42.098;24.876;2022-10-23T03:18:39;100117.63;;;10.54;68.09
44839;BME280;30576;42.098;24.876;2022-10-23T03:21:04;100135.94;;;10.72;67.73
44839;BME280;30576;42.098;24.876;2022-10-23T03:23:30;100131.56;;;10.68;67.34
44839;BME280;30576;42.098;24.876;2022-10-23T03:25:55;100108.63;;;10.77;67.06
44839;BME280;30576;42.098;24.876;2022-10-23T03:28:20;100108.56;;;10.84;66.92
44839;BME280;30576;42.098;24.876;2022-10-23T03:30:46;100107.53;;;10.99;66.41
44839;BME280;30576;42.098;24.876;2022-10-23T03:33:11;100109.47;;;10.83;66.85
44839;BME280;30576;42.098;24.876;2022-10-23T03:35:36;100126.22;;;10.76;67.07
44839;BME280;30576;42.098;24.876;2022-10-23T03:38:02;100146.47;;;10.75;66.81
44839;BME280;30576;42.098;24.876;2022-10-23T03:40:27;100155.25;;;10.78;65.88
44839;BME280;30576;42.098;24.876;2022-10-23T03:42:52;100153.56;;;10.67;65.17
44839;BME280;30576;42.098;24.876;2022-10-23T03:45:18;100137.78;;;10.60;64.86
44839;BME280;30576;42.098;24.876;2022-10-23T03:47:43;100134.41;;;10.42;65.74
44839;BME280;30576;42.098;24.876;2022-10-23T03:50:09;100134.38;;;10.48;65.90
44839;BME280;30576;42.098;24.876;2022-10-23T03:52:35;100142.25;;;10.53;66.42
44839;BME280;30576;42.098;24.876;2022-10-23T03:55:00;100143.91;;;10.68;66.35
44839;BME280;30576;42.098;24.876;2022-10-23T03:57:26;100137.69;;;10.73;65.50
44839;BME280;30576;42.098;24.876;2022-10-23T03:59:51;100141.19;;;10.79;66.22
44839;BME280;30576;42.098;24.876;2022-10-23T04:02:16;100144.69;;;10.76;66.88
44839;BME280;30576;42.098;24.876;2022-10-23T04:04:42;100148.25;;;10.72;67.06
44839;BME280;30576;42.098;24.876;2022-10-23T04:07:07;100143.72;;;10.89;66.62
44839;BME280;30576;42.098;24.876;2022-10-23T04:09:32;100139.66;;;10.47;67.10
44839;BME280;30576;42.098;24.876;2022-10-23T04:11:58;100132.63;;;10.52;67.17
44839;BME280;30576;42.098;24.876;2022-10-23T04:14:24;100132.53;;;10.58;67.23
44839;BME280;30576;42.098;24.876;2022-10-23T04:16:49;100123.53;;;10.84;66.45
44839;BME280;30576;42.098;24.876;2022-10-23T04:19:15;100113.06;;;10.73;66.65
44839;BME280;30576;42.098;24.876;2022-10-23T04:21:41;100134.94;;;10.84;66.58
44839;BME280;30576;42.098;24.876;2022-10-23T04:24:06;100148.22;;;10.75;66.14
44839;BME280;30576;42.098;24.876;2022-10-23T04:26:32;100172.97;;;10.63;66.99
44839;BME280;30576;42.098;24.876;2022-10-23T04:28:57;100169.66;;;10.36;67.53
44839;BME280;30576;42.098;24.876;2022-10-23T04:31:22;100157.28;;;10.42;67.62
44839;BME280;30576;42.098;24.876;2022-10-23T04:33:47;100147.50;;;10.56;67.54
44839;BME280;30576;42.098;24.876;2022-10-23T04:36:13;100129.31;;;10.14;68.75
44839;BME280;30576;42.098;24.876;2022-10-23T04:38:38;100125.81;;;10.11;68.77
44839;BME280;30576;42.098;24.876;2022-10-23T04:41:03;100129.28;;;10.17;68.95
44839;BME280;30576;42.098;24.876;2022-10-23T04:43:29;100133.63;;;10.28;68.86
44839;BME280;30576;42.098;24.876;2022-10-23T04:45:54;100139.66;;;10.47;67.98
44839;BME280;30576;42.098;24.876;2022-10-23T04:48:19;100147.59;;;10.42;68.10
44839;BME280;30576;42.098;24.876;2022-10-23T04:50:53;100152.94;;;10.34;68.09
44839;BME280;30576;42.098;24.876;2022-10-23T04:53:18;100154.69;;;10.35;68.00
44839;BME280;30576;42.098;24.876;2022-10-23T04:55:50;100152.03;;;10.38;67.29
44839;BME280;30576;42.098;24.876;2022-10-23T04:58:15;100153.81;;;10.38;67.15
44839;BME280;30576;42.098;24.876;2022-10-23T05:00:42;100159.88;;;10.49;66.86
44839;BME280;30576;42.098;24.876;2022-10-23T05:03:07;100155.38;;;10.61;66.23
44839;BME280;30576;42.098;24.876;2022-10-23T05:05:32;100145.81;;;10.49;66.42
44839;BME280;30576;42.098;24.876;2022-10-23T05:07:58;100146.78;;;10.35;67.18
44839;BME280;30576;42.098;24.876;2022-10-23T05:10:23;100154.84;;;10.08;67.92
44839;BME280;30576;42.098;24.876;2022-10-23T05:12:49;100166.31;;;9.93;68.65
44839;BME280;30576;42.098;24.876;2022-10-23T05:15:14;100160.19;;;9.91;68.98
44839;BME280;30576;42.098;24.876;2022-10-23T05:17:40;100173.31;;;10.01;68.51
44839;BME280;30576;42.098;24.876;2022-10-23T05:20:08;100170.66;;;10.08;68.19
44839;BME280;30576;42.098;24.876;2022-10-23T05:22:38;100167.94;;;10.23;68.29
44839;BME280;30576;42.098;24.876;2022-10-23T05:25:04;100166.06;;;10.41;68.06
44839;BME280;30576;42.098;24.876;2022-10-23T05:27:30;100165.16;;;10.48;67.50
44839;BME280;30576;42.098;24.876;2022-10-23T05:29:55;100170.41;;;10.51;67.67
44839;BME280;30576;42.098;24.876;2022-10-23T05:32:21;100173.88;;;10.57;67.67
44839;BME280;30576;42.098;24.876;2022-10-23T05:34:47;100164.13;;;10.66;67.80
44839;BME280;30576;42.098;24.876;2022-10-23T05:37:12;100165.94;;;10.61;67.97
44839;BME280;30576;42.098;24.876;2022-10-23T05:39:38;100171.94;;;10.78;68.12
44839;BME280;30576;42.098;24.876;2022-10-23T05:42:03;100172.00;;;10.72;68.86
44839;BME280;30576;42.098;24.876;2022-10-23T05:44:29;100170.03;;;10.99;68.41
44839;BME280;30576;42.098;24.876;2022-10-23T05:46:54;100175.84;;;11.35;67.13
44839;BME280;30576;42.098;24.876;2022-10-23T05:49:19;100180.47;;;11.90;65.18
44839;BME280;30576;42.098;24.876;2022-10-23T05:51:45;100186.00;;;12.39;63.82
44839;BME280;30576;42.098;24.876;2022-10-23T05:54:10;100185.47;;;12.74;62.60
44839;BME280;30576;42.098;24.876;2022-10-23T05:56:36;100188.75;;;13.43;61.77
44839;BME280;30576;42.098;24.876;2022-10-23T05:59:04;100193.50;;;13.71;59.67
44839;BME280;30576;42.098;24.876;2022-10-23T06:01:31;100191.38;;;13.88;59.40
44839;BME280;30576;42.098;24.876;2022-10-23T06:04:00;100198.88;;;14.10;58.74
44839;BME280;30576;42.098;24.876;2022-10-23T06:06:25;100199.72;;;14.13;59.83
44839;BME280;30576;42.098;24.876;2022-10-23T06:08:51;100198.34;;;14.35;59.38
44839;BME280;30576;42.098;24.876;2022-10-23T06:11:16;100205.50;;;14.72;57.21
44839;BME280;30576;42.098;24.876;2022-10-23T06:13:42;100192.66;;;14.91;55.31
44839;BME280;30576;42.098;24.876;2022-10-23T06:22:30;100213.69;;;15.66;54.03
44839;BME280;30576;42.098;24.876;2022-10-23T06:24:55;100209.44;;;15.93;53.06
44839;BME280;30576;42.098;24.876;2022-10-23T06:27:21;100203.13;;;16.27;51.51
44839;BME280;30576;42.098;24.876;2022-10-23T06:29:51;100203.03;;;16.85;48.86
44839;BME280;30576;42.098;24.876;2022-10-23T06:32:19;100200.28;;;17.42;47.33
44839;BME280;30576;42.098;24.876;2022-10-23T06:34:47;100210.75;;;17.98;45.60
44839;BME280;30576;42.098;24.876;2022-10-23T06:37:17;100219.59;;;18.68;42.68
44839;BME280;30576;42.098;24.876;2022-10-23T06:39:42;100222.75;;;19.22;42.22
44839;BME280;30576;42.098;24.876;2022-10-23T06:42:10;100220.75;;;19.68;39.44
44839;BME280;30576;42.098;24.876;2022-10-23T06:44:36;100227.88;;;20.09;38.78
44839;BME280;30576;42.098;24.876;2022-10-23T06:47:02;100235.94;;;20.47;38.12
44839;BME280;30576;42.098;24.876;2022-10-23T06:49:27;100232.13;;;20.72;37.63
44839;BME280;30576;42.098;24.876;2022-10-23T06:51:56;100238.56;;;20.87;37.04
44839;BME280;30576;42.098;24.876;2022-10-23T06:54:21;100243.63;;;21.10;37.08
44839;BME280;30576;42.098;24.876;2022-10-23T06:56:46;100263.75;;;21.19;36.28
44839;BME280;30576;42.098;24.876;2022-10-23T06:59:16;100261.09;;;21.37;36.43
44839;BME280;30576;42.098;24.876;2022-10-23T07:01:41;100246.78;;;21.36;35.96
44839;BME280;30576;42.098;24.876;2022-10-23T07:04:07;100247.22;;;21.46;36.25
44839;BME280;30576;42.098;24.876;2022-10-23T07:06:34;100248.50;;;21.56;35.44
44839;BME280;30576;42.098;24.876;2022-10-23T07:08:59;100260.56;;;21.65;35.25
44839;BME280;30576;42.098;24.876;2022-10-23T07:11:28;100273.84;;;21.68;35.48
44839;BME280;30576;42.098;24.876;2022-10-23T07:13:56;100270.66;;;21.77;35.43
44839;BME280;30576;42.098;24.876;2022-10-23T07:16:22;100262.91;;;21.89;35.23
44839;BME280;30576;42.098;24.876;2022-10-23T07:18:49;100268.44;;;22.03;35.99
44839;BME280;30576;42.098;24.876;2022-10-23T07:21:17;100269.38;;;22.02;35.59
44839;BME280;30576;42.098;24.876;2022-10-23T07:23:44;100263.06;;;22.03;35.95
44839;BME280;30576;42.098;24.876;2022-10-23T07:26:12;100261.81;;;22.26;35.70
44839;BME280;30576;42.098;24.876;2022-10-23T07:28:41;100257.59;;;22.38;35.90
44839;BME280;30576;42.098;24.876;2022-10-23T07:31:07;100250.78;;;22.48;35.56
44839;BME280;30576;42.098;24.876;2022-10-23T07:33:32;100247.31;;;22.29;35.75
44839;BME280;30576;42.098;24.876;2022-10-23T07:35:58;100252.44;;;22.51;35.56
44839;BME280;30576;42.098;24.876;2022-10-23T07:38:23;100244.94;;;22.72;36.58
44839;BME280;30576;42.098;24.876;2022-10-23T07:40:50;100240.13;;;22.79;35.28
44839;BME280;30576;42.098;24.876;2022-10-23T07:43:16;100242.38;;;22.86;34.80
44839;BME280;30576;42.098;24.876;2022-10-23T07:45:44;100255.19;;;22.81;35.60
44839;BME280;30576;42.098;24.876;2022-10-23T07:48:10;100247.91;;;22.83;35.60
44839;BME280;30576;42.098;24.876;2022-10-23T07:50:36;100250.00;;;23.10;34.36
44839;BME280;30576;42.098;24.876;2022-10-23T07:53:03;100250.06;;;23.09;34.75
44839;BME280;30576;42.098;24.876;2022-10-23T07:55:29;100240.78;;;23.14;34.61
44839;BME280;30576;42.098;24.876;2022-10-23T07:57:55;100246.94;;;23.47;34.63
44839;BME280;30576;42.098;24.876;2022-10-23T08:00:24;100246.31;;;23.72;34.92
44839;BME280;30576;42.098;24.876;2022-10-23T08:03:03;100226.91;;;23.67;34.17
44839;BME280;30576;42.098;24.876;2022-10-23T08:05:54;100233.25;;;23.80;34.54
44839;BME280;30576;42.098;24.876;2022-10-23T08:11:32;100223.88;;;23.57;33.95
44839;BME280;30576;42.098;24.876;2022-10-23T08:13:59;100223.13;;;23.55;34.66
44839;BME280;30576;42.098;24.876;2022-10-23T08:16:37;100227.66;;;23.54;35.25
44839;BME280;30576;42.098;24.876;2022-10-23T08:19:04;100219.50;;;23.70;36.06
44839;BME280;30576;42.098;24.876;2022-10-23T08:21:30;100227.66;;;23.69;36.00
44839;BME280;30576;42.098;24.876;2022-10-23T08:23:55;100217.44;;;23.59;36.03
44839;BME280;30576;42.098;24.876;2022-10-23T08:26:21;100220.63;;;23.66;36.43
44839;BME280;30576;42.098;24.876;2022-10-23T08:28:50;100239.19;;;23.56;36.84
44839;BME280;30576;42.098;24.876;2022-10-23T08:31:29;100236.56;;;23.55;37.14
44839;BME280;30576;42.098;24.876;2022-10-23T08:33:54;100217.75;;;23.69;36.83
44839;BME280;30576;42.098;24.876;2022-10-23T08:36:26;100233.16;;;23.82;36.58
44839;BME280;30576;42.098;24.876;2022-10-23T08:38:53;100238.19;;;23.88;36.58
44839;BME280;30576;42.098;24.876;2022-10-23T08:41:28;100229.06;;;23.90;36.96
44839;BME280;30576;42.098;24.876;2022-10-23T08:46:33;100248.19;;;23.86;37.84
44839;BME280;30576;42.098;24.876;2022-10-23T08:49:23;100240.41;;;23.95;37.58
44839;BME280;30576;42.098;24.876;2022-10-23T08:51:49;100246.00;;;24.07;37.84
44839;BME280;30576;42.098;24.876;2022-10-23T08:56:41;100232.50;;;23.92;38.03
44839;BME280;30576;42.098;24.876;2022-10-23T09:01:54;100231.66;;;24.06;38.33
44839;BME280;30576;42.098;24.876;2022-10-23T09:04:23;100235.59;;;24.29;37.96
44839;BME280;30576;42.098;24.876;2022-10-23T09:07:07;100231.75;;;24.34;37.61
44839;BME280;30576;42.098;24.876;2022-10-23T09:10:21;100231.19;;;24.28;37.76
44839;BME280;30576;42.098;24.876;2022-10-23T09:12:27;100236.66;;;24.27;38.20
44839;BME280;30576;42.098;24.876;2022-10-23T09:17:44;100232.91;;;24.44;37.70
44839;BME280;30576;42.098;24.876;2022-10-23T09:20:30;100230.59;;;24.38;38.04
44839;BME280;30576;42.098;24.876;2022-10-23T09:23:01;100236.81;;;24.53;37.43
44839;BME280;30576;42.098;24.876;2022-10-23T09:25:39;100233.44;;;24.63;37.70
44839;BME280;30576;42.098;24.876;2022-10-23T09:28:05;100227.84;;;24.81;36.89
44839;BME280;30576;42.098;24.876;2022-10-23T09:32:56;100217.19;;;24.92;36.84
44839;BME280;30576;42.098;24.876;2022-10-23T09:35:23;100211.38;;;24.71;36.16
44839;BME280;30576;42.098;24.876;2022-10-23T09:37:49;100203.38;;;24.70;36.09
44839;BME280;30576;42.098;24.876;2022-10-23T09:42:56;100193.75;;;24.93;35.76
44839;BME280;30576;42.098;24.876;2022-10-23T09:45:23;100204.00;;;24.88;34.46
44839;BME280;30576;42.098;24.876;2022-10-23T09:47:50;100193.00;;;24.91;34.30
44839;BME280;30576;42.098;24.876;2022-10-23T09:50:18;100207.56;;;24.88;34.68
44839;BME280;30576;42.098;24.876;2022-10-23T09:52:43;100208.56;;;25.00;35.05
44839;BME280;30576;42.098;24.876;2022-10-23T09:55:19;100217.19;;;24.92;35.31
44839;BME280;30576;42.098;24.876;2022-10-23T09:57:47;100208.50;;;25.14;35.01
44839;BME280;30576;42.098;24.876;2022-10-23T10:00:17;100208.16;;;25.06;35.19
44839;BME280;30576;42.098;24.876;2022-10-23T10:02:55;100196.09;;;25.12;35.43
44839;BME280;30576;42.098;24.876;2022-10-23T10:07:58;100189.38;;;25.45;34.25
44839;BME280;30576;42.098;24.876;2022-10-23T10:10:26;100195.53;;;25.72;33.95
44839;BME280;30576;42.098;24.876;2022-10-23T10:12:54;100194.13;;;25.67;34.05
44839;BME280;30576;42.098;24.876;2022-10-23T10:23:06;100141.75;;;25.57;34.68
44839;BME280;30576;42.098;24.876;2022-10-23T10:25:58;100171.34;;;25.71;33.09
44839;BME280;30576;42.098;24.876;2022-10-23T10:31:18;100165.19;;;25.43;32.38
44839;BME280;30576;42.098;24.876;2022-10-23T10:34:10;100160.19;;;25.50;31.93
44839;BME280;30576;42.098;24.876;2022-10-23T10:36:51;100166.91;;;25.57;31.43
44839;BME280;30576;42.098;24.876;2022-10-23T10:41:51;100151.56;;;25.70;32.21
44839;BME280;30576;42.098;24.876;2022-10-23T10:46:57;100141.94;;;25.66;32.00
44839;BME280;30576;42.098;24.876;2022-10-23T10:57:30;100131.56;;;25.86;31.77
44839;BME280;30576;42.098;24.876;2022-10-23T10:59:57;100143.38;;;25.72;31.66
44839;BME280;30576;42.098;24.876;2022-10-23T11:02:26;100135.41;;;25.95;31.31
44839;BME280;30576;42.098;24.876;2022-10-23T11:05:01;100143.97;;;25.88;31.18
44839;BME280;30576;42.098;24.876;2022-10-23T11:07:33;100140.41;;;26.01;31.28
44839;BME280;30576;42.098;24.876;2022-10-23T11:10:02;100127.53;;;25.91;30.44
44839;BME280;30576;42.098;24.876;2022-10-23T11:12:29;100123.34;;;26.00;30.70
44839;BME280;30576;42.098;24.876;2022-10-23T11:14:54;100110.47;;;26.04;30.88
44839;BME280;30576;42.098;24.876;2022-10-23T11:17:26;100111.25;;;26.06;30.66
44839;BME280;30576;42.098;24.876;2022-10-23T11:20:09;100121.50;;;26.01;30.51
44839;BME280;30576;42.098;24.876;2022-10-23T11:22:51;100112.84;;;25.96;29.17
44839;BME280;30576;42.098;24.876;2022-10-23T11:30:53;100104.09;;;26.05;29.29
44839;BME280;30576;42.098;24.876;2022-10-23T11:36:06;100090.84;;;26.26;29.86
44839;BME280;30576;42.098;24.876;2022-10-23T11:38:36;100089.16;;;26.36;29.51
44839;BME280;30576;42.098;24.876;2022-10-23T11:41:03;100094.41;;;26.26;28.80
44839;BME280;30576;42.098;24.876;2022-10-23T11:45:55;100074.78;;;26.36;27.47
44839;BME280;30576;42.098;24.876;2022-10-23T12:01:51;100077.94;;;26.30;28.68
44839;BME280;30576;42.098;24.876;2022-10-23T12:09:55;100071.81;;;26.27;27.69
44839;BME280;30576;42.098;24.876;2022-10-23T12:14:52;100078.00;;;26.41;28.13
44839;BME280;30576;42.098;24.876;2022-10-23T12:22:27;100079.56;;;26.32;28.46
44839;BME280;30576;42.098;24.876;2022-10-23T12:27:39;100077.56;;;26.58;28.52
44839;BME280;30576;42.098;24.876;2022-10-23T12:32:43;100071.38;;;26.45;28.49
44839;BME280;30576;42.098;24.876;2022-10-23T12:40:24;100078.63;;;26.69;28.23
44839;BME280;30576;42.098;24.876;2022-10-23T12:42:54;100085.06;;;26.55;28.26
44839;BME280;30576;42.098;24.876;2022-10-23T12:45:30;100082.75;;;26.61;28.28
44839;BME280;30576;42.098;24.876;2022-10-23T12:47:56;100067.63;;;26.59;28.29
44839;BME280;30576;42.098;24.876;2022-10-23T12:50:27;100064.97;;;26.46;28.10
44839;BME280;30576;42.098;24.876;2022-10-23T12:52:57;100059.91;;;26.41;28.23
44839;BME280;30576;42.098;24.876;2022-10-23T12:55:28;100060.75;;;26.31;28.21
44839;BME280;30576;42.098;24.876;2022-10-23T12:57:54;100057.50;;;26.25;28.22
44839;BME280;30576;42.098;24.876;2022-10-23T13:00:21;100060.00;;;26.29;28.62
44839;BME280;30576;42.098;24.876;2022-10-23T13:02:56;100065.66;;;26.37;28.70
44839;BME280;30576;42.098;24.876;2022-10-23T13:05:21;100060.69;;;26.43;28.36
44839;BME280;30576;42.098;24.876;2022-10-23T13:07:47;100064.00;;;26.47;27.98
44839;BME280;30576;42.098;24.876;2022-10-23T13:10:14;100066.31;;;26.16;28.29
44839;BME280;30576;42.098;24.876;2022-10-23T13:12:40;100068.56;;;26.22;28.29
44839;BME280;30576;42.098;24.876;2022-10-23T13:17:35;100060.91;;;26.16;27.91
44839;BME280;30576;42.098;24.876;2022-10-23T13:22:48;100068.00;;;26.06;28.39
44839;BME280;30576;42.098;24.876;2022-10-23T13:25:21;100064.78;;;26.25;28.46
44839;BME280;30576;42.098;24.876;2022-10-23T13:27:48;100063.81;;;26.26;27.88
44839;BME280;30576;42.098;24.876;2022-10-23T13:30:27;100064.44;;;26.30;27.96
44839;BME280;30576;42.098;24.876;2022-10-23T13:32:53;100060.56;;;26.21;27.97
44839;BME280;30576;42.098;24.876;2022-10-23T13:35:21;100063.94;;;26.12;28.27
44839;BME280;30576;42.098;24.876;2022-10-23T13:37:47;100061.56;;;26.20;28.43
44839;BME280;30576;42.098;24.876;2022-10-23T13:40:20;100073.78;;;26.37;28.84
44839;BME280;30576;42.098;24.876;2022-10-23T13:42:47;100070.13;;;26.38;28.74
44839;BME280;30576;42.098;24.876;2022-10-23T13:45:15;100062.94;;;26.25;28.15
44839;BME280;30576;42.098;24.876;2022-10-23T13:47:42;100046.88;;;26.11;28.39
44839;BME280;30576;42.098;24.876;2022-10-23T13:50:07;100065.56;;;26.14;28.51
44839;BME280;30576;42.098;24.876;2022-10-23T13:52:35;100069.59;;;26.08;28.42
44839;BME280;30576;42.098;24.876;2022-10-23T13:55:01;100065.28;;;25.93;28.59
44839;BME280;30576;42.098;24.876;2022-10-23T13:57:27;100075.78;;;25.98;29.04
44839;BME280;30576;42.098;24.876;2022-10-23T13:59:53;100071.44;;;25.95;28.47
44839;BME280;30576;42.098;24.876;2022-10-23T14:02:19;100066.84;;;25.84;28.38
44839;BME280;30576;42.098;24.876;2022-10-23T14:04:45;100064.41;;;25.92;28.39
44839;BME280;30576;42.098;24.876;2022-10-23T14:07:11;100066.91;;;25.96;28.16
44839;BME280;30576;42.098;24.876;2022-10-23T14:09:36;100072.69;;;25.78;28.42
44839;BME280;30576;42.098;24.876;2022-10-23T14:12:01;100069.97;;;25.78;28.34
44839;BME280;30576;42.098;24.876;2022-10-23T14:14:27;100062.94;;;25.76;28.57
44839;BME280;30576;42.098;24.876;2022-10-23T14:16:52;100060.38;;;25.74;28.45
44839;BME280;30576;42.098;24.876;2022-10-23T14:19:18;100061.44;;;25.71;28.74
44839;BME280;30576;42.098;24.876;2022-10-23T14:21:44;100061.00;;;25.78;28.58
44839;BME280;30576;42.098;24.876;2022-10-23T14:24:09;100063.50;;;25.68;28.60
44839;BME280;30576;42.098;24.876;2022-10-23T14:26:35;100068.16;;;25.66;28.75
44839;BME280;30576;42.098;24.876;2022-10-23T14:29:00;100061.78;;;25.67;28.61
44839;BME280;30576;42.098;24.876;2022-10-23T14:31:25;100074.31;;;25.68;28.78
44839;BME280;30576;42.098;24.876;2022-10-23T14:33:52;100082.22;;;25.58;28.67
44839;BME280;30576;42.098;24.876;2022-10-23T14:36:18;100080.41;;;25.46;28.93
44839;BME280;30576;42.098;24.876;2022-10-23T14:38:44;100083.50;;;25.52;29.34
44839;BME280;30576;42.098;24.876;2022-10-23T14:41:10;100083.22;;;25.44;29.19
44839;BME280;30576;42.098;24.876;2022-10-23T14:43:36;100081.47;;;25.43;29.43
44839;BME280;30576;42.098;24.876;2022-10-23T14:46:34;100088.81;;;25.41;29.58
44839;BME280;30576;42.098;24.876;2022-10-23T14:48:53;100086.56;;;25.35;29.85
44839;BME280;30576;42.098;24.876;2022-10-23T14:51:20;100094.88;;;25.32;29.59
44839;BME280;30576;42.098;24.876;2022-10-23T14:53:45;100089.47;;;25.32;29.79
44839;BME280;30576;42.098;24.876;2022-10-23T14:56:11;100091.78;;;25.24;29.78
44839;BME280;30576;42.098;24.876;2022-10-23T14:58:36;100085.97;;;25.04;29.83
44839;BME280;30576;42.098;24.876;2022-10-23T15:01:02;100100.53;;;25.14;29.90